Bromley, United Kingdom
Current Conditions -  °F | °C
As of 3:50 AM on Saturday 25 Oct 2014 (Local Time) from EGLC Reporting Station
Clear Clear  
Wind Chill: 52°   Ceiling: Unl
Heat Index: 52°   Visibility: 6mi
Dew Point: 48°   Wind: 7mph
Humidity: 88%   Direction: 240°WSW
Pressure: 30"   Gusts: NA
Location:  51.41°N, 0.01°E
Report Text: EGLC 250250Z AUTO 24006KT 9999 NCD 11/09 Q1016
Loading
Personal Weather Stations






























Interactive Weather Map
Tropical Storm Tracking
New forecast layout! Learn more

10-Day Weather Forecast

Advertisements
Track Severe Weather on mobile